Terminal Aerodrome Forecast
Issued by NWS

Home | Current Version | Previous Version | Text Only | Print | Product List | Glossary On
Versions: 1 2 3 4 5 6 7 8 9 10 11 12 13 14
000
FTUS43 KOAX 011720
TAFBFF
TAF
KBFF 011720Z 0118/0218 30007KT P6SM FEW120
     FM012300 08006KT P6SM VCTS BKN100CB
     FM020100 VRB15G30KT 5SM -TSRA BKN050CB BKN100
     FM020500 07008KT 3SM -SHRA VCTS SCT020 BKN050CB
     FM021200 02007KT 3SM BR SCT007 OVC015
     FM021700 34008KT P6SM SCT015 BKN080=

USA.gov is the U.S. government's official web portal to all federal, state and local government web resources and services.